createdAt,value
2018-11-25T00:02:18.170Z,40.70
2018-11-25T00:04:46.263Z,40.60
2018-11-25T00:07:14.359Z,40.40
2018-11-25T00:09:42.449Z,40.40
2018-11-25T00:12:10.510Z,40.10
2018-11-25T00:14:38.588Z,40.00
2018-11-25T00:17:06.707Z,39.90
2018-11-25T00:19:34.790Z,39.80
2018-11-25T00:22:02.915Z,39.70
2018-11-25T00:24:31.052Z,39.60
2018-11-25T00:26:59.073Z,39.50
2018-11-25T00:29:27.168Z,39.40
2018-11-25T00:31:55.227Z,39.30
2018-11-25T00:34:23.313Z,39.10
2018-11-25T00:36:51.375Z,39.10
2018-11-25T00:39:19.478Z,38.90
2018-11-25T00:41:47.597Z,38.80
2018-11-25T00:44:15.684Z,38.70
2018-11-25T00:46:43.758Z,38.40
2018-11-25T00:49:11.851Z,38.40
2018-11-25T00:51:39.930Z,38.90
2018-11-25T00:54:08.042Z,38.10
2018-11-25T00:56:36.105Z,38.00
2018-11-25T00:59:04.420Z,37.80
2018-11-25T01:01:32.499Z,37.60
2018-11-25T01:04:00.686Z,37.60
2018-11-25T01:06:28.885Z,37.40
2018-11-25T01:08:56.971Z,37.20
2018-11-25T01:11:25.038Z,37.20
2018-11-25T01:13:53.137Z,37.00
2018-11-25T01:16:21.238Z,36.80
2018-11-25T01:18:49.342Z,36.70
2018-11-25T01:21:17.514Z,36.60
2018-11-25T01:23:45.725Z,36.50
2018-11-25T01:26:13.799Z,36.50
2018-11-25T01:28:41.904Z,36.10
2018-11-25T01:31:09.967Z,36.00
2018-11-25T01:33:38.071Z,35.90
2018-11-25T01:36:06.175Z,35.70
2018-11-25T01:38:34.246Z,35.50
2018-11-25T01:41:02.371Z,35.50
2018-11-25T01:43:30.465Z,35.30
2018-11-25T01:45:58.538Z,35.10
2018-11-25T01:48:26.765Z,35.00
2018-11-25T01:50:54.878Z,35.00
2018-11-25T01:53:22.946Z,34.70
2018-11-25T01:55:51.064Z,34.60
2018-11-25T01:58:19.134Z,34.60
2018-11-25T02:00:47.203Z,34.30
2018-11-25T02:03:15.281Z,34.20
2018-11-25T02:05:43.367Z,34.00
2018-11-25T02:08:11.430Z,34.00
2018-11-25T02:10:39.570Z,33.80
2018-11-25T02:13:07.667Z,33.60
2018-11-25T02:15:35.733Z,33.60
2018-11-25T02:18:03.854Z,33.40
2018-11-25T02:20:31.934Z,33.20
2018-11-25T02:23:00.021Z,33.10
2018-11-25T02:25:28.086Z,33.00
2018-11-25T02:27:56.163Z,32.90
2018-11-25T02:30:24.322Z,33.00
2018-11-25T02:32:52.402Z,32.70
2018-11-25T02:35:20.512Z,32.60
2018-11-25T02:37:48.592Z,32.60
2018-11-25T02:40:17.440Z,32.40
2018-11-25T02:42:45.534Z,32.20
2018-11-25T02:45:16.414Z,32.20
2018-11-25T02:47:44.505Z,32.00
2018-11-25T02:50:32.265Z,32.10
2018-11-25T02:53:01.391Z,31.90
2018-11-25T02:55:29.473Z,31.80
2018-11-25T02:57:57.542Z,31.70
2018-11-25T03:00:25.629Z,31.70
2018-11-25T03:02:53.693Z,31.50
2018-11-25T03:05:21.790Z,31.50
2018-11-25T03:07:49.849Z,31.40
2018-11-25T03:10:17.915Z,31.50
2018-11-25T03:12:46.104Z,31.40
2018-11-25T03:15:16.857Z,31.40
2018-11-25T03:17:45.071Z,31.40
2018-11-25T03:20:14.834Z,31.30
2018-11-25T03:22:42.910Z,31.30
2018-11-25T03:25:13.245Z,31.20
2018-11-25T03:27:41.314Z,31.20
2018-11-25T03:30:13.409Z,31.30
2018-11-25T03:32:41.510Z,31.90
2018-11-25T03:35:10.778Z,31.10
2018-11-25T03:37:38.854Z,31.20
2018-11-25T03:40:11.192Z,31.20
2018-11-25T03:42:39.289Z,31.30
2018-11-25T03:45:10.166Z,31.10
2018-11-25T03:47:38.222Z,31.20
2018-11-25T03:50:07.007Z,31.20
2018-11-25T03:52:35.084Z,31.20
2018-11-25T03:55:03.166Z,31.20
2018-11-25T03:57:31.229Z,31.20
2018-11-25T03:59:59.305Z,31.20
2018-11-25T04:02:27.385Z,31.30
2018-11-25T04:04:55.455Z,31.20
2018-11-25T04:07:23.538Z,31.20
2018-11-25T04:09:51.618Z,31.40
2018-11-25T04:12:19.726Z,31.40
2018-11-25T04:14:47.818Z,31.40
2018-11-25T04:17:15.898Z,31.60
2018-11-25T04:19:43.962Z,31.50
2018-11-25T04:22:12.088Z,31.60
2018-11-25T04:24:40.174Z,31.60
2018-11-25T04:27:08.336Z,31.60
2018-11-25T04:29:36.418Z,31.80
2018-11-25T04:32:04.482Z,31.90
2018-11-25T04:34:32.662Z,31.90
2018-11-25T04:37:00.828Z,31.80
2018-11-25T04:39:28.882Z,32.50
2018-11-25T04:41:56.969Z,31.90
2018-11-25T04:44:25.074Z,32.00
2018-11-25T04:46:53.282Z,32.00
2018-11-25T04:49:21.374Z,32.10
2018-11-25T04:51:49.470Z,32.10
2018-11-25T04:54:17.538Z,32.20
2018-11-25T04:56:45.610Z,32.20
2018-11-25T04:59:13.669Z,32.20
2018-11-25T05:01:41.821Z,32.30
2018-11-25T05:04:09.903Z,32.40
2018-11-25T05:06:37.977Z,32.40
2018-11-25T05:09:08.241Z,32.50
2018-11-25T05:11:36.550Z,32.50
2018-11-25T05:14:05.213Z,32.50
2018-11-25T05:16:33.418Z,32.50
2018-11-25T05:19:01.486Z,32.60
2018-11-25T05:21:29.602Z,32.60
2018-11-25T05:23:57.922Z,32.70
2018-11-25T05:26:26.057Z,32.70
2018-11-25T05:28:54.113Z,32.80
2018-11-25T05:31:22.201Z,32.90
2018-11-25T05:33:50.278Z,32.90
2018-11-25T05:36:18.349Z,32.90
2018-11-25T05:38:46.591Z,33.00
2018-11-25T05:41:14.655Z,33.00
2018-11-25T05:43:42.767Z,33.10
2018-11-25T05:46:10.854Z,33.10
2018-11-25T05:48:39.006Z,33.10
2018-11-25T05:51:07.570Z,33.20
2018-11-25T05:53:35.669Z,33.20
2018-11-25T05:56:03.833Z,33.20
2018-11-25T05:58:31.914Z,33.30
2018-11-25T06:00:59.988Z,33.30
2018-11-25T06:03:28.057Z,33.40
2018-11-25T06:05:56.166Z,33.50
2018-11-25T06:08:24.360Z,33.70
2018-11-25T06:10:52.696Z,33.50
2018-11-25T06:13:20.777Z,33.50
2018-11-25T06:15:48.894Z,33.60
2018-11-25T06:18:16.982Z,33.60
2018-11-25T06:20:45.095Z,33.60
2018-11-25T06:23:13.165Z,33.60
2018-11-25T06:25:41.241Z,33.60
2018-11-25T06:28:09.317Z,33.70
2018-11-25T06:30:37.473Z,33.70
2018-11-25T06:33:05.550Z,33.70
2018-11-25T06:35:33.614Z,34.40
2018-11-25T06:38:01.691Z,33.90
2018-11-25T06:40:29.789Z,33.90
2018-11-25T06:42:57.873Z,33.90
2018-11-25T06:45:27.274Z,34.10
2018-11-25T06:47:56.169Z,34.10
2018-11-25T06:50:24.253Z,34.10
2018-11-25T06:52:52.319Z,34.10
2018-11-25T06:55:20.382Z,34.10
2018-11-25T06:57:48.454Z,34.10
2018-11-25T07:00:18.442Z,34.20
2018-11-25T07:02:46.514Z,34.20
2018-11-25T07:05:14.669Z,34.20
2018-11-25T07:07:42.730Z,34.30
2018-11-25T07:10:11.958Z,34.30
2018-11-25T07:12:40.043Z,34.40
2018-11-25T07:15:11.688Z,34.50
2018-11-25T07:17:39.763Z,34.40
2018-11-25T07:20:09.534Z,34.50
2018-11-25T07:22:37.665Z,34.60
2018-11-25T07:25:08.992Z,35.30
2018-11-25T07:27:37.126Z,34.70
2018-11-25T07:30:11.494Z,34.60
2018-11-25T07:32:39.560Z,34.70
2018-11-25T07:35:07.838Z,34.80
2018-11-25T07:37:36.205Z,34.80
2018-11-25T07:40:21.005Z,34.80
2018-11-25T07:42:49.462Z,34.80
2018-11-25T07:45:21.417Z,34.90
2018-11-25T07:47:49.558Z,35.00
2018-11-25T07:50:17.633Z,35.00
2018-11-25T07:52:46.576Z,34.90
2018-11-25T07:55:22.614Z,34.90
2018-11-25T07:57:51.803Z,34.90
2018-11-25T08:00:21.119Z,35.00
2018-11-25T08:02:49.298Z,35.60
2018-11-25T08:05:19.529Z,35.00
2018-11-25T08:07:47.629Z,35.00
2018-11-25T08:10:16.083Z,35.00
2018-11-25T08:12:44.664Z,35.00
2018-11-25T08:15:15.282Z,35.10
2018-11-25T08:17:43.381Z,35.20
2018-11-25T08:20:12.479Z,35.30
2018-11-25T08:22:40.569Z,35.30
2018-11-25T08:25:10.587Z,35.40
2018-11-25T08:27:38.718Z,35.40
2018-11-25T08:30:25.194Z,35.40
2018-11-25T08:32:53.453Z,35.40
2018-11-25T08:35:21.646Z,35.90
2018-11-25T08:37:49.765Z,35.40
2018-11-25T08:40:19.754Z,35.40
2018-11-25T08:42:47.829Z,35.50
2018-11-25T08:45:16.043Z,35.50
2018-11-25T08:47:44.183Z,35.50
2018-11-25T08:50:14.894Z,35.50
2018-11-25T08:52:45.002Z,35.60
2018-11-25T08:55:20.670Z,35.60
2018-11-25T08:57:48.758Z,35.60
2018-11-25T09:00:19.644Z,35.60
2018-11-25T09:02:48.202Z,35.70
2018-11-25T09:05:16.407Z,35.70
2018-11-25T09:07:44.516Z,35.70
2018-11-25T09:10:17.151Z,36.10
2018-11-25T09:12:47.362Z,35.60
2018-11-25T09:15:16.271Z,35.40
2018-11-25T09:17:44.473Z,33.60
2018-11-25T09:20:14.434Z,34.80
2018-11-25T09:22:42.595Z,34.80
2018-11-25T09:25:19.445Z,34.90
2018-11-25T09:27:47.554Z,34.60
2018-11-25T09:30:19.326Z,34.50
2018-11-25T09:32:47.426Z,34.70
2018-11-25T09:35:15.594Z,34.70
2018-11-25T09:37:43.641Z,34.80
2018-11-25T09:40:15.550Z,34.80
2018-11-25T09:42:43.631Z,35.00
2018-11-25T09:45:13.422Z,35.50
2018-11-25T09:47:41.753Z,35.50
2018-11-25T09:50:10.839Z,35.60
2018-11-25T09:52:38.893Z,35.50
2018-11-25T09:55:08.728Z,36.10
2018-11-25T09:57:36.998Z,36.00
2018-11-25T10:00:15.401Z,36.10
2018-11-25T10:02:43.528Z,36.20
2018-11-25T10:05:11.781Z,36.20
2018-11-25T10:07:40.024Z,36.40
2018-11-25T10:10:11.051Z,36.70
2018-11-25T10:12:39.375Z,36.50
2018-11-25T10:15:09.577Z,36.90
2018-11-25T10:17:37.726Z,37.10
2018-11-25T10:20:10.275Z,37.50
2018-11-25T10:22:38.379Z,37.50
2018-11-25T10:25:08.320Z,37.50
2018-11-25T10:27:36.601Z,37.40
2018-11-25T10:30:09.628Z,37.20
2018-11-25T10:32:37.926Z,37.10
2018-11-25T10:35:07.132Z,37.30
2018-11-25T10:37:35.284Z,37.50
2018-11-25T10:40:04.536Z,37.60
2018-11-25T10:42:32.774Z,37.90
2018-11-25T10:45:00.956Z,37.80
2018-11-25T10:47:29.423Z,38.00
2018-11-25T10:49:57.642Z,37.90
2018-11-25T10:52:25.863Z,37.80
2018-11-25T10:54:54.030Z,37.60
2018-11-25T10:57:22.135Z,37.70
2018-11-25T10:59:50.238Z,37.60
2018-11-25T11:02:19.509Z,37.70
2018-11-25T11:04:53.007Z,37.70
2018-11-25T11:07:22.990Z,37.90
2018-11-25T11:09:51.269Z,37.80
2018-11-25T11:12:19.409Z,37.80
2018-11-25T11:14:47.627Z,37.80
2018-11-25T11:17:15.809Z,37.70
2018-11-25T11:19:44.019Z,37.90
2018-11-25T11:22:12.201Z,37.80
2018-11-25T11:24:40.679Z,37.80
2018-11-25T11:27:08.848Z,38.00
2018-11-25T11:29:37.029Z,37.90
2018-11-25T11:32:05.257Z,38.10
2018-11-25T11:34:33.354Z,38.20
2018-11-25T11:37:01.447Z,38.80
2018-11-25T11:39:29.550Z,38.30
2018-11-25T11:41:57.632Z,38.20
2018-11-25T11:44:25.754Z,38.60
2018-11-25T11:46:53.835Z,38.50
2018-11-25T11:49:22.092Z,38.60
2018-11-25T11:51:50.239Z,38.90
2018-11-25T11:54:18.361Z,39.00
2018-11-25T11:56:46.478Z,39.20
2018-11-25T11:59:14.693Z,39.30
2018-11-25T12:01:43.015Z,39.30
2018-11-25T12:04:11.089Z,39.00
2018-11-25T12:06:39.272Z,38.80
2018-11-25T12:09:09.607Z,38.60
2018-11-25T12:11:37.786Z,38.20
2018-11-25T12:14:05.907Z,38.10
2018-11-25T12:16:34.015Z,38.00
2018-11-25T12:19:02.104Z,37.90
2018-11-25T12:21:30.224Z,37.40
2018-11-25T12:23:58.338Z,37.50
2018-11-25T12:26:26.480Z,37.60
2018-11-25T12:28:54.695Z,37.50
2018-11-25T12:31:22.828Z,37.30
2018-11-25T12:33:50.892Z,37.10
2018-11-25T12:36:18.978Z,37.20
2018-11-25T12:38:47.086Z,37.00
2018-11-25T12:41:15.287Z,37.00
2018-11-25T12:43:43.968Z,37.00
2018-11-25T12:46:12.098Z,37.10
2018-11-25T12:48:40.213Z,37.10
2018-11-25T12:51:08.420Z,37.10
2018-11-25T12:53:36.524Z,37.30
2018-11-25T12:56:05.287Z,37.20
2018-11-25T12:58:33.520Z,37.30
2018-11-25T13:01:01.613Z,37.40
2018-11-25T13:03:29.928Z,37.40
2018-11-25T13:05:58.024Z,37.30
2018-11-25T13:08:26.249Z,37.40
2018-11-25T13:10:54.348Z,37.40
2018-11-25T13:13:22.469Z,37.60
2018-11-25T13:15:50.772Z,36.90
2018-11-25T13:18:18.946Z,36.20
2018-11-25T13:20:47.082Z,35.80
2018-11-25T13:23:15.198Z,35.60
2018-11-25T13:25:43.366Z,35.00
2018-11-25T13:28:11.453Z,35.20
2018-11-25T13:30:39.560Z,35.10
2018-11-25T13:33:07.858Z,35.50
2018-11-25T13:35:37.767Z,35.60
2018-11-25T13:38:06.523Z,35.70
2018-11-25T13:40:34.671Z,36.10
2018-11-25T13:43:02.846Z,36.60
2018-11-25T13:45:30.942Z,36.80
2018-11-25T13:47:59.290Z,37.40
2018-11-25T13:50:27.542Z,37.60
2018-11-25T13:52:55.741Z,37.60
2018-11-25T13:55:25.134Z,38.00
2018-11-25T13:57:53.277Z,38.00
2018-11-25T14:00:26.492Z,38.10
2018-11-25T14:02:54.943Z,38.40
2018-11-25T14:05:23.663Z,38.50
2018-11-25T14:07:51.786Z,38.50
2018-11-25T14:10:25.574Z,39.30
2018-11-25T14:12:53.731Z,39.70
2018-11-25T14:15:21.822Z,40.30
2018-11-25T14:17:49.959Z,40.00
2018-11-25T14:20:18.078Z,40.20
2018-11-25T14:22:46.289Z,40.30
2018-11-25T14:25:15.961Z,40.70
2018-11-25T14:27:44.519Z,41.40
2018-11-25T14:30:15.210Z,41.20
2018-11-25T14:32:43.407Z,40.90
2018-11-25T14:35:12.962Z,41.30
2018-11-25T14:37:41.022Z,41.40
2018-11-25T14:40:10.666Z,41.50
2018-11-25T14:42:38.821Z,42.00
2018-11-25T14:45:10.958Z,42.30
2018-11-25T14:47:39.127Z,42.00
2018-11-25T14:50:10.949Z,42.40
2018-11-25T14:52:39.198Z,42.50
2018-11-25T14:55:10.307Z,42.40
2018-11-25T14:57:38.633Z,42.40
2018-11-25T15:00:13.066Z,43.10
2018-11-25T15:02:41.402Z,42.80
2018-11-25T15:05:20.110Z,43.60
2018-11-25T15:07:48.224Z,43.50
2018-11-25T15:10:17.164Z,43.60
2018-11-25T15:12:45.561Z,43.40
2018-11-25T15:15:14.630Z,43.60
2018-11-25T15:17:43.858Z,43.70
2018-11-25T15:20:12.713Z,43.80
2018-11-25T15:22:42.766Z,43.80
2018-11-25T15:25:14.113Z,43.80
2018-11-25T15:27:42.187Z,44.00
2018-11-25T15:30:11.926Z,44.50
2018-11-25T15:32:40.102Z,44.80
2018-11-25T15:35:10.325Z,44.50
2018-11-25T15:37:39.605Z,45.30
2018-11-25T15:40:12.621Z,45.60
2018-11-25T15:42:40.771Z,45.70
2018-11-25T15:45:10.030Z,46.10
2018-11-25T15:47:38.633Z,45.40
2018-11-25T15:50:09.254Z,46.00
2018-11-25T15:52:37.502Z,45.50
2018-11-25T15:55:09.452Z,45.90
2018-11-25T15:57:37.587Z,46.00
2018-11-25T16:00:10.521Z,46.00
2018-11-25T16:02:38.947Z,46.20
2018-11-25T16:05:08.588Z,46.60
2018-11-25T16:07:36.731Z,46.40
2018-11-25T16:10:07.214Z,46.20
2018-11-25T16:12:35.414Z,47.00
2018-11-25T16:15:03.547Z,47.30
2018-11-25T16:17:31.668Z,46.80
2018-11-25T16:19:59.883Z,46.70
2018-11-25T16:22:28.034Z,46.50
2018-11-25T16:24:56.123Z,46.50
2018-11-25T16:27:24.306Z,46.60
2018-11-25T16:29:52.378Z,46.80
2018-11-25T16:32:20.506Z,46.30
2018-11-25T16:34:55.308Z,46.90
2018-11-25T16:37:23.425Z,46.80
2018-11-25T16:39:51.554Z,45.70
2018-11-25T16:42:19.654Z,45.10
2018-11-25T16:44:47.729Z,44.30
2018-11-25T16:47:15.946Z,44.50
2018-11-25T16:49:44.041Z,43.20
2018-11-25T16:52:12.136Z,42.20
2018-11-25T16:54:40.237Z,42.60
2018-11-25T16:57:08.325Z,42.90
2018-11-25T16:59:36.462Z,43.00
2018-11-25T17:02:04.553Z,42.80
2018-11-25T17:04:32.688Z,43.30
2018-11-25T17:07:00.778Z,43.00
2018-11-25T17:09:28.881Z,42.90
2018-11-25T17:11:56.954Z,43.70
2018-11-25T17:14:33.469Z,43.80
2018-11-25T17:16:53.127Z,44.00
2018-11-25T17:19:21.221Z,44.20
2018-11-25T17:21:49.324Z,44.40
2018-11-25T17:24:17.382Z,44.60
2018-11-25T17:26:45.473Z,44.50
2018-11-25T17:29:13.564Z,44.00
2018-11-25T17:31:41.639Z,43.90
2018-11-25T17:34:09.723Z,43.90
2018-11-25T17:36:37.799Z,43.80
2018-11-25T17:39:08.093Z,44.30
2018-11-25T17:41:36.251Z,44.50
2018-11-25T17:44:04.334Z,44.80
2018-11-25T17:46:32.404Z,44.30
2018-11-25T17:49:00.478Z,44.70
2018-11-25T17:51:28.583Z,44.70
2018-11-25T17:53:56.643Z,44.70
2018-11-25T17:56:24.755Z,44.90
2018-11-25T17:58:52.831Z,45.00
2018-11-25T18:01:20.895Z,45.30
2018-11-25T18:03:49.137Z,45.00
2018-11-25T18:06:17.538Z,45.10
2018-11-25T18:08:45.674Z,45.60
2018-11-25T18:11:13.768Z,45.60
2018-11-25T18:13:41.965Z,45.60
2018-11-25T18:16:11.095Z,45.70
2018-11-25T18:18:42.825Z,45.80
2018-11-25T18:21:16.921Z,45.90
2018-11-25T18:23:44.994Z,45.90
2018-11-25T18:26:13.098Z,45.90
2018-11-25T18:28:41.216Z,45.70
2018-11-25T18:31:10.204Z,45.80
2018-11-25T18:33:38.283Z,45.90
2018-11-25T18:36:07.370Z,45.90
2018-11-25T18:38:35.453Z,46.00
2018-11-25T18:41:03.537Z,45.90
2018-11-25T18:43:31.618Z,45.90
2018-11-25T18:45:59.720Z,46.00
2018-11-25T18:48:28.054Z,46.00
2018-11-25T18:50:56.155Z,46.00
2018-11-25T18:53:24.245Z,46.00
2018-11-25T18:55:51.766Z,46.00
2018-11-25T18:58:19.842Z,46.00
2018-11-25T19:00:54.531Z,46.10
2018-11-25T19:03:22.613Z,46.00
2018-11-25T19:05:50.720Z,46.00
2018-11-25T19:08:18.843Z,46.00
2018-11-25T19:10:46.937Z,46.00
2018-11-25T19:13:15.017Z,46.00
2018-11-25T19:15:43.119Z,46.00
2018-11-25T19:18:11.721Z,46.00
2018-11-25T19:20:40.774Z,46.00
2018-11-25T19:23:08.860Z,46.00
2018-11-25T19:25:37.063Z,46.00
2018-11-25T19:28:07.511Z,46.10
2018-11-25T19:30:35.614Z,46.10
2018-11-25T19:33:03.687Z,46.10
2018-11-25T19:35:31.805Z,46.10
2018-11-25T19:37:59.950Z,46.10
2018-11-25T19:40:28.029Z,46.10
2018-11-25T19:42:56.234Z,46.10
2018-11-25T19:45:25.711Z,46.20
2018-11-25T19:47:54.532Z,46.20
2018-11-25T19:50:24.974Z,46.20
2018-11-25T19:52:53.074Z,46.30
2018-11-25T19:55:21.750Z,46.20
2018-11-25T19:57:49.274Z,46.30
2018-11-25T20:00:19.677Z,46.20
2018-11-25T20:02:49.273Z,46.30
2018-11-25T20:05:15.865Z,46.20
2018-11-25T20:07:44.121Z,46.30
2018-11-25T20:10:13.302Z,46.30
2018-11-25T20:12:42.557Z,46.40
2018-11-25T20:15:11.774Z,47.00
2018-11-25T20:17:39.926Z,46.40
2018-11-25T20:20:09.632Z,46.50
2018-11-25T20:22:37.716Z,46.40
2018-11-25T20:25:07.415Z,46.50
2018-11-25T20:27:41.810Z,46.50
2018-11-25T20:30:11.254Z,46.50
2018-11-25T20:32:44.675Z,46.60
2018-11-25T20:35:12.763Z,46.60
2018-11-25T20:37:46.316Z,46.70
2018-11-25T20:40:14.373Z,46.80
2018-11-25T20:42:42.461Z,46.80
2018-11-25T20:45:17.077Z,46.90
2018-11-25T20:47:45.588Z,46.90
2018-11-25T20:50:13.651Z,47.10
2018-11-25T20:52:47.210Z,47.20
2018-11-25T20:55:15.279Z,47.30
2018-11-25T20:57:43.443Z,47.40
2018-11-25T21:00:15.042Z,47.50
2018-11-25T21:02:42.122Z,47.60
2018-11-25T21:05:12.248Z,47.80
2018-11-25T21:07:40.320Z,48.10
2018-11-25T21:10:11.538Z,48.30
2018-11-25T21:12:39.774Z,48.60
2018-11-25T21:15:09.058Z,48.80
2018-11-25T21:17:37.135Z,49.00
2018-11-25T21:20:09.378Z,49.20
2018-11-25T21:22:37.503Z,49.40
2018-11-25T21:25:10.658Z,49.50
2018-11-25T21:27:38.777Z,49.70
2018-11-25T21:30:10.767Z,49.90
2018-11-25T21:32:39.038Z,50.00
2018-11-25T21:35:08.220Z,50.10
2018-11-25T21:37:36.287Z,50.20
2018-11-25T21:40:07.810Z,50.30
2018-11-25T21:42:35.886Z,50.30
2018-11-25T21:45:03.962Z,50.30
2018-11-25T21:47:32.034Z,50.30
2018-11-25T21:50:00.133Z,50.30
2018-11-25T21:52:28.253Z,50.30
2018-11-25T21:54:56.310Z,50.20
2018-11-25T21:57:24.402Z,50.10
2018-11-25T21:59:52.530Z,50.10
2018-11-25T22:02:21.605Z,50.00
2018-11-25T22:04:48.692Z,49.90
2018-11-25T22:07:16.870Z,49.90
2018-11-25T22:09:44.990Z,49.70
2018-11-25T22:12:13.062Z,49.60
2018-11-25T22:14:41.201Z,49.50
2018-11-25T22:17:09.322Z,49.50
2018-11-25T22:19:37.410Z,49.30
2018-11-25T22:22:05.753Z,49.40
2018-11-25T22:24:33.845Z,49.30
2018-11-25T22:27:01.928Z,49.20
2018-11-25T22:29:30.008Z,49.20
2018-11-25T22:31:58.137Z,49.00
2018-11-25T22:34:26.203Z,48.90
2018-11-25T22:36:54.378Z,48.90
2018-11-25T22:39:22.470Z,48.90
2018-11-25T22:41:50.558Z,48.70
2018-11-25T22:44:18.646Z,48.50
2018-11-25T22:46:46.755Z,48.40
2018-11-25T22:49:14.869Z,48.30
2018-11-25T22:51:42.966Z,48.10
2018-11-25T22:54:11.058Z,48.00
2018-11-25T22:56:39.233Z,48.00
2018-11-25T22:59:07.342Z,47.70
2018-11-25T23:01:35.430Z,47.60
2018-11-25T23:04:14.901Z,47.40
2018-11-25T23:06:57.293Z,47.30
2018-11-25T23:09:25.409Z,47.20
2018-11-25T23:11:53.487Z,47.10
2018-11-25T23:14:21.575Z,46.80
2018-11-25T23:16:49.653Z,46.60
2018-11-25T23:19:17.738Z,46.60
2018-11-25T23:21:45.847Z,46.40
2018-11-25T23:24:13.934Z,46.30
2018-11-25T23:26:42.022Z,46.20
2018-11-25T23:29:10.105Z,46.00
2018-11-25T23:31:38.201Z,45.90
2018-11-25T23:34:06.938Z,45.80
2018-11-25T23:36:35.396Z,45.60
2018-11-25T23:39:03.562Z,45.40
2018-11-25T23:41:31.690Z,45.20
2018-11-25T23:43:59.778Z,45.10
2018-11-25T23:46:27.849Z,44.90
2018-11-25T23:48:55.942Z,44.80
2018-11-25T23:51:24.013Z,44.60
2018-11-25T23:53:52.081Z,44.40
2018-11-25T23:56:20.170Z,44.20
2018-11-25T23:58:48.243Z,44.20
